This is the latest recevied weather packets stored in our database for station/object PU2XNA. If no packets are shown the sender has not sent any weather packets the latest 10 day(s).
| Time | Temp. | Humidity | Pressure | Rain* | Wind** | Luminosity | Snow |
|---|---|---|---|---|---|---|---|
| 1787493602 | 26.67° C | 46% | 1017.8 hPa | - | - | - | - |
| 1787492702 | 26.11° C | 48% | 1018 hPa | - | - | - | - |
| 1787491802 | 25.56° C | 50% | 1018.2 hPa | - | - | - | - |
| 1787490902 | 25° C | 51% | 1018.2 hPa | - | - | - | - |
| 1787490003 | 25° C | 52% | 1018.2 hPa | - | - | - | - |
| 1787489102 | 26.11° C | 49% | 1018.2 hPa | - | - | - | - |
| 1787488202 | 27.78° C | 45% | 1018.1 hPa | - | - | - | - |
| 1787487303 | 27.22° C | 47% | 1017.9 hPa | - | - | - | - |
| 1787486404 | 23.33° C | 54% | 1017.7 hPa | - | - | - | - |
| 1787485502 | 18.89° C | 64% | 1017.7 hPa | - | - | - | - |
| 1787484603 | 17.22° C | 69% | 1017.6 hPa | - | - | - | - |
| 1787483702 | 15.56° C | 73% | 1017.3 hPa | - | - | - | - |
| 1787482803 | 14.44° C | 75% | 1017 hPa | - | - | - | - |
| 1787481902 | 13.89° C | 77% | 1016.8 hPa | - | - | - | - |
| 1787481002 | 13.33° C | 77% | 1016.8 hPa | - | - | - | - |
| 1787480103 | 13.33° C | 78% | 1016.7 hPa | - | - | - | - |
| 1787479202 | 12.78° C | 78% | 1016.5 hPa | - | - | - | - |
| 1787478302 | 13.33° C | 78% | 1016.3 hPa | - | - | - | - |
| 1787477402 | 13.33° C | 77% | 1015.8 hPa | - | - | - | - |
| 1787476503 | 13.33° C | 76% | 1015.6 hPa | - | - | - | - |
| 1787475602 | 13.33° C | 77% | 1015.4 hPa | - | - | - | - |
| 1787474702 | 13.89° C | 76% | 1015.3 hPa | - | - | - | - |
| 1787473803 | 13.89° C | 75% | 1015 hPa | - | - | - | - |
| 1787472903 | 13.89° C | 75% | 1014.8 hPa | - | - | - | - |
| 1787472003 | 13.89° C | 75% | 1014.6 hPa | - | - | - | - |
* Rain since midnight (hover to see other rain measurements)
** Current wind speed in m/s (hover to see current wind gust speed)